Create Tblcommutelog Verified Points Advance Search
| # | Trip ID | Id Commuter | Trip Date | Trip Num | Current Lat | Current Lng | Delta Distance | Current Time | Activity | Activity Confidence | Current Speed | |
|---|---|---|---|---|---|---|---|---|---|---|---|---|
| 71341 | 260105_762844_16460442_0635 | 762844 | (not set) | (not set) | 38.918306224506 | -76.970587882537 | 37.3243 | 2026-01-05 07:25:51 | in_vehicle | 100 | 7.3359142399886 | |
| 71342 | 260105_669170_16500693_0655 | 669170 | (not set) | (not set) | 39.246823068124 | -77.471670183318 | 15.2536 | 2026-01-05 07:23:58 | in_vehicle | 100 | 13.83586506567 | |
| 71343 | 260105_781336_16450333_0653 | 781336 | (not set) | (not set) | 38.920809938609 | -77.22214870162 | 18.3813 | 2026-01-05 07:25:59 | in_vehicle | 100 | 0 | |
| 71344 | 260105_786638_16514715_0646 | 786638 | (not set) | (not set) | 39.117564111979 | -76.636760593963 | 15.9918 | 2026-01-05 07:26:07 | in_vehicle | 100 | 12.061119207489 | |
| 71345 | 260105_774226_16511083_0716 | 774226 | (not set) | (not set) | 38.902345824857 | -77.023980772498 | 1.5048 | 2026-01-05 07:26:17 | in_vehicle | 100 | 3.0532781388862 | |
| 71346 | 260105_789732_16462581_0722 | 789732 | (not set) | (not set) | 38.882148005416 | -77.22637841496 | 0.1952 | 2026-01-05 07:26:22 | on_foot | 100 | 0.30398669611165 | |
| 71347 | 260105_786930_16432785_0706 | 786930 | (not set) | (not set) | 39.277341623488 | -76.557919698696 | 2.5477 | 2026-01-05 07:26:29 | unknown | 100 | 5.3376487523134 | |
| 71348 | 260105_770872_16486958_0718 | 770872 | (not set) | (not set) | 39.1950737 | -76.768676 | 6.6006 | 2026-01-05 07:26:36 | in_vehicle | 100 | 15.847541731115 | |
| 71349 | 260105_788381_16460160_0705 | 788381 | (not set) | (not set) | 38.899511997994 | -77.028118886735 | 7.5951 | 2026-01-05 07:26:45 | in_vehicle | 100 | -0.44703925898772 | |
| 71350 | 260105_784252_16652453_0704 | 784252 | (not set) | (not set) | 39.380386079534 | -77.254118070449 | 14.0475 | 2026-01-05 07:26:52 | in_vehicle | 100 | 16.339284916001 | |
| 71351 | 260105_787417_16515090_0722 | 787417 | (not set) | (not set) | 39.39821191677 | -76.763710597275 | 3.0404 | 2026-01-05 07:26:59 | in_vehicle | 100 | 12.159467844466 | |
| 71352 | 260105_781336_16450333_0653 | 781336 | (not set) | (not set) | 38.922897367774 | -77.214173907486 | 18.8434 | 2026-01-05 07:27:06 | in_vehicle | 100 | 9.7007519200336 | |
| 71353 | 260105_780476_16483865_0633 | 780476 | (not set) | (not set) | 38.8075775 | -77.0594669 | 4.3839 | 2026-01-05 06:40:49 | in_vehicle | 100 | 0.67502928107146 | |
| 71354 | 260105_783029_6431355_0720 | 783029 | (not set) | (not set) | 38.812090770465 | -77.055041960313 | 0 | 2026-01-05 07:27:12 | on_foot | 100 | -0.44703925898772 | |
| 71355 | 260105_784252_16652453_0704 | 784252 | (not set) | (not set) | 39.378381354094 | -77.245061428687 | 14.5517 | 2026-01-05 07:27:14 | in_vehicle | 100 | 16.831028100888 | |
| 71356 | 260105_764454_16507126_0714 | 764454 | (not set) | (not set) | 38.988137213779 | -77.467873319408 | 6.7692 | 2026-01-05 07:27:15 | in_vehicle | 100 | 12.995431258773 | |
| 71357 | 260105_781336_16450333_0653 | 781336 | (not set) | (not set) | 38.923861747644 | -77.211531009597 | 19.0006 | 2026-01-05 07:27:19 | still | 33 | 6.6072402478386 | |
| 71358 | 260105_785822_16514312_0709 | 785822 | (not set) | (not set) | 38.951570024402 | -76.940777030373 | 4.0587 | 2026-01-05 07:27:24 | on_bicycle | 100 | 2.9146959686 | |
| 71359 | 260105_785232_6438355_0651 | 785232 | (not set) | (not set) | 38.886065954503 | -77.157008120266 | 2.4092 | 2026-01-05 07:27:30 | on_foot | 100 | 0.45598004416748 | |
| 71360 | 260105_784252_16652453_0704 | 784252 | (not set) | (not set) | 39.376253672183 | -77.235471421904 | 15.0857 | 2026-01-05 07:27:37 | in_vehicle | 100 | 16.451044730748 |